Weather at River Acres Airport

Public forecast

Using degrees Fahrenheit for public forecast. Weather courtesy of forecast.io.

Closest aviation weather report (METAR) to River Acres Airport

Closest report is Searcy Municipal Airport, 19.2 nm (35.6 km) SE. Retrieved 2020/09/26 11:06 UTC (2 minutes ago):

KSRC 261106Z AUTO 00000KT 1/4SM FG OVC002 14/14 A3000 RMK AO2

Closest aviation forecast (TAF) to River Acres Airport

Closest forecast is Little Rock Air Force Base, 34.6 nm (64.0 km) SSW. Retrieved 2020/09/26 07:06 UTC (4 hours ago):

TAF TAF KLRF 260700Z 2607/2713 VRB05KT 9999 BKN030 BKN050 QNH2997INS BECMG 2609/2610 VRB03KT 4800 BR SCT015 BKN030 BKN050 QNH2998INS TEMPO 2610/2614 BKN015 BECMG 2613/2614 21006KT 9999 NSW BKN018 BKN050 QNH2992INS BECMG 2619/2620 18009KT 9999 SCT020 SCT050 QNH2988INS BECMG 2701/2702 17005KT 9999 SCT030 BKN120 QNH2985INS TX24/2621Z TN13/2611Z